createdAt,value
2018-12-04T00:02:20.465Z,96690.48
2018-12-04T00:04:47.950Z,96687.79
2018-12-04T00:07:15.430Z,96692.81
2018-12-04T00:09:42.921Z,96678.92
2018-12-04T00:12:10.414Z,96690.59
2018-12-04T00:14:37.897Z,96640.47
2018-12-04T00:17:05.386Z,96684.03
2018-12-04T00:19:32.897Z,96682.36
2018-12-04T00:22:00.390Z,96675.63
2018-12-04T00:24:27.881Z,96673.39
2018-12-04T00:26:55.360Z,96681.88
2018-12-04T00:29:22.846Z,96690.67
2018-12-04T00:31:50.404Z,96681.88
2018-12-04T00:34:17.898Z,96693.84
2018-12-04T00:36:45.376Z,96690.58
2018-12-04T00:39:12.888Z,96682.17
2018-12-04T00:41:40.418Z,96690.26
2018-12-04T00:44:07.986Z,96697.88
2018-12-04T00:46:35.473Z,96691.03
2018-12-04T00:49:02.970Z,96690.38
2018-12-04T00:51:30.453Z,96687.67
2018-12-04T00:53:57.936Z,96682.05
2018-12-04T00:56:25.453Z,96693.99
2018-12-04T00:58:52.935Z,96688.69
2018-12-04T01:01:20.422Z,96690.81
2018-12-04T01:03:47.912Z,96690.50
2018-12-04T01:06:15.392Z,96699.09
2018-12-04T01:08:42.877Z,96718.70
2018-12-04T01:11:10.357Z,96711.84
2018-12-04T01:13:37.836Z,96716.95
2018-12-04T01:16:05.349Z,96725.45
2018-12-04T01:18:32.844Z,96722.09
2018-12-04T01:21:00.329Z,96730.97
2018-12-04T01:23:27.827Z,96740.05
2018-12-04T01:25:55.312Z,96742.05
2018-12-04T01:28:22.800Z,96739.34
2018-12-04T01:30:50.280Z,96743.80
2018-12-04T01:33:17.761Z,96707.56
2018-12-04T01:35:45.247Z,96751.52
2018-12-04T01:38:12.724Z,96758.82
2018-12-04T01:40:40.255Z,96771.56
2018-12-04T01:43:07.736Z,96780.84
2018-12-04T01:45:35.217Z,96787.69
2018-12-04T01:48:02.709Z,96784.39
2018-12-04T01:50:30.193Z,96784.39
2018-12-04T01:52:57.677Z,96791.27
2018-12-04T01:55:25.165Z,96786.25
2018-12-04T01:57:52.681Z,96787.05
2018-12-04T02:00:20.171Z,96788.30
2018-12-04T02:02:47.655Z,96786.48
2018-12-04T02:05:15.192Z,96780.87
2018-12-04T02:07:42.678Z,96736.67
2018-12-04T02:10:10.185Z,96788.02
2018-12-04T02:12:37.669Z,96785.05
2018-12-04T02:15:05.187Z,96799.50
2018-12-04T02:17:32.714Z,96789.46
2018-12-04T02:20:00.200Z,96786.35
2018-12-04T02:22:27.698Z,96792.16
2018-12-04T02:24:55.182Z,96797.18
2018-12-04T02:27:22.679Z,96791.09
2018-12-04T02:29:50.156Z,96799.59
2018-12-04T02:32:17.662Z,96800.38
2018-12-04T02:34:45.179Z,96800.76
2018-12-04T02:37:12.678Z,96800.48
2018-12-04T02:39:40.281Z,96803.92
2018-12-04T02:42:07.768Z,96808.95
2018-12-04T02:44:35.262Z,96801.05
2018-12-04T02:47:02.750Z,96799.79
2018-12-04T02:49:30.240Z,96802.20
2018-12-04T02:51:57.749Z,96806.85
2018-12-04T02:54:25.247Z,96799.23
2018-12-04T02:56:52.754Z,96809.37
2018-12-04T02:59:20.242Z,96820.47
2018-12-04T03:01:47.741Z,96820.38
2018-12-04T03:04:15.245Z,96823.64
2018-12-04T03:06:42.741Z,96834.66
2018-12-04T03:09:10.234Z,96837.08
2018-12-04T03:11:37.735Z,96839.61
2018-12-04T03:14:05.227Z,96847.89
2018-12-04T03:16:32.709Z,96859.31
2018-12-04T03:19:00.199Z,96853.28
2018-12-04T03:21:27.693Z,96802.26
2018-12-04T03:23:55.182Z,96865.93
2018-12-04T03:26:22.669Z,96862.16
2018-12-04T03:28:50.171Z,96871.55
2018-12-04T03:31:17.663Z,96857.92
2018-12-04T03:33:45.183Z,96856.66
2018-12-04T03:36:12.673Z,96858.80
2018-12-04T03:38:40.158Z,96861.59
2018-12-04T03:41:07.819Z,96859.67
2018-12-04T03:43:35.306Z,96860.83
2018-12-04T03:46:02.822Z,96864.97
2018-12-04T03:48:30.347Z,96874.91
2018-12-04T03:50:57.933Z,96874.34
2018-12-04T03:53:25.417Z,96874.24
2018-12-04T03:55:52.905Z,96880.98
2018-12-04T03:58:20.385Z,96877.59
2018-12-04T04:00:47.932Z,96663.83
2018-12-04T04:03:15.462Z,96881.06
2018-12-04T04:05:42.981Z,96887.34
2018-12-04T04:08:11.110Z,96890.36
2018-12-04T04:10:38.603Z,96896.41
2018-12-04T04:13:06.090Z,96902.31
2018-12-04T04:15:33.570Z,96909.37
2018-12-04T04:18:01.121Z,96914.19
2018-12-04T04:20:28.669Z,96918.23
2018-12-04T04:22:56.351Z,96909.45
2018-12-04T04:25:24.121Z,96919.48
2018-12-04T04:27:51.806Z,96917.25
2018-12-04T04:30:19.388Z,96925.09
2018-12-04T04:32:47.066Z,96922.48
2018-12-04T04:35:14.801Z,96932.00
2018-12-04T04:37:42.522Z,96927.87
2018-12-04T04:40:10.115Z,96943.60
2018-12-04T04:42:37.640Z,96937.33
2018-12-04T04:45:05.507Z,96948.62
2018-12-04T04:47:33.221Z,96938.58
2018-12-04T04:50:00.775Z,96955.09
2018-12-04T04:52:28.382Z,96959.02
2018-12-04T04:54:56.050Z,96968.18
2018-12-04T04:57:23.768Z,96966.92
2018-12-04T04:59:51.369Z,96974.75
2018-12-04T05:02:18.989Z,96976.78
2018-12-04T05:04:46.517Z,96973.70
2018-12-04T05:07:14.100Z,96964.41
2018-12-04T05:09:41.662Z,96981.97
2018-12-04T05:12:09.211Z,96975.53
2018-12-04T05:14:36.764Z,96989.43
2018-12-04T05:17:04.348Z,96994.82
2018-12-04T05:19:31.906Z,97003.80
2018-12-04T05:21:59.454Z,97002.34
2018-12-04T05:24:27.018Z,97006.86
2018-12-04T05:26:54.564Z,97022.95
2018-12-04T05:29:22.129Z,97027.39
2018-12-04T05:31:49.647Z,97032.04
2018-12-04T05:34:17.181Z,97038.20
2018-12-04T05:36:44.773Z,97038.69
2018-12-04T05:39:12.359Z,97036.75
2018-12-04T05:41:39.862Z,97043.66
2018-12-04T05:44:07.397Z,97046.91
2018-12-04T05:46:34.935Z,97052.17
2018-12-04T05:49:02.466Z,97049.09
2018-12-04T05:51:30.007Z,97041.25
2018-12-04T05:53:57.546Z,97055.10
2018-12-04T05:56:25.075Z,97052.39
2018-12-04T05:58:52.631Z,96837.02
2018-12-04T06:01:20.144Z,97057.08
2018-12-04T06:03:47.678Z,97050.39
2018-12-04T06:06:15.187Z,97059.27
2018-12-04T06:08:42.759Z,97061.41
2018-12-04T06:11:10.339Z,97065.53
2018-12-04T06:13:37.855Z,97072.80
2018-12-04T06:16:05.406Z,97078.76
2018-12-04T06:18:32.945Z,97081.67
2018-12-04T06:21:00.468Z,97083.66
2018-12-04T06:23:28.056Z,97090.23
2018-12-04T06:25:55.602Z,97103.03
2018-12-04T06:28:23.128Z,97101.10
2018-12-04T06:30:50.653Z,97099.11
2018-12-04T06:33:18.145Z,97106.33
2018-12-04T06:35:45.629Z,97109.34
2018-12-04T06:38:13.109Z,97112.48
2018-12-04T06:40:40.614Z,97127.94
2018-12-04T06:43:08.096Z,97132.54
2018-12-04T06:45:35.581Z,97138.06
2018-12-04T06:48:03.056Z,97139.64
2018-12-04T06:50:30.531Z,97143.51
2018-12-04T06:52:58.034Z,97147.85
2018-12-04T06:55:25.534Z,97153.19
2018-12-04T06:57:56.652Z,97155.80
2018-12-04T07:00:24.154Z,97161.30
2018-12-04T07:02:51.641Z,97164.79
2018-12-04T07:05:19.116Z,97164.53
2018-12-04T07:07:46.599Z,97167.63
2018-12-04T07:10:14.118Z,97175.62
2018-12-04T07:12:41.601Z,97176.02
2018-12-04T07:15:09.093Z,97183.47
2018-12-04T07:17:36.578Z,97186.08
2018-12-04T07:20:05.234Z,97205.20
2018-12-04T07:22:32.749Z,97215.19
2018-12-04T07:25:00.234Z,97216.44
2018-12-04T07:27:27.710Z,97222.61
2018-12-04T07:29:55.196Z,97223.27
2018-12-04T07:32:22.695Z,97226.73
2018-12-04T07:34:50.254Z,97221.51
2018-12-04T07:37:17.744Z,97214.17
2018-12-04T07:39:45.242Z,97218.68
2018-12-04T07:42:12.736Z,97223.37
2018-12-04T07:44:40.225Z,97228.79
2018-12-04T07:47:07.859Z,97232.03
2018-12-04T07:49:35.345Z,97245.23
2018-12-04T07:52:02.846Z,97256.63
2018-12-04T07:54:30.333Z,97259.63
2018-12-04T07:56:57.809Z,97268.17
2018-12-04T07:59:25.314Z,97276.10
2018-12-04T08:01:52.810Z,97279.20
2018-12-04T08:04:20.307Z,97278.53
2018-12-04T08:06:47.817Z,97283.40
2018-12-04T08:09:15.334Z,97291.52
2018-12-04T08:11:42.826Z,97283.73
2018-12-04T08:14:10.328Z,97287.70
2018-12-04T08:16:37.823Z,97289.44
2018-12-04T08:19:05.303Z,97290.33
2018-12-04T08:21:32.802Z,97303.23
2018-12-04T08:24:00.307Z,97306.36
2018-12-04T08:26:27.802Z,97307.73
2018-12-04T08:28:55.326Z,97310.23
2018-12-04T08:31:22.845Z,97317.98
2018-12-04T08:33:50.445Z,97324.47
2018-12-04T08:36:18.185Z,97324.95
2018-12-04T08:38:45.719Z,97324.58
2018-12-04T08:41:13.265Z,97336.42
2018-12-04T08:43:40.819Z,97343.64
2018-12-04T08:46:08.376Z,97354.23
2018-12-04T08:48:35.920Z,97360.23
2018-12-04T08:51:03.429Z,97366.06
2018-12-04T08:53:31.032Z,97363.41
2018-12-04T08:55:58.625Z,97372.77
2018-12-04T08:58:26.164Z,97373.81
2018-12-04T09:00:53.710Z,97385.11
2018-12-04T09:03:21.271Z,97387.84
2018-12-04T09:05:48.785Z,97392.75
2018-12-04T09:08:16.381Z,97407.17
2018-12-04T09:10:44.051Z,97400.71
2018-12-04T09:13:11.626Z,97405.35
2018-12-04T09:15:39.165Z,97411.98
2018-12-04T09:18:06.700Z,97418.38
2018-12-04T09:20:34.391Z,97419.14
2018-12-04T09:23:02.078Z,97423.28
2018-12-04T09:25:29.752Z,97435.49
2018-12-04T09:27:57.396Z,97440.41
2018-12-04T09:30:25.042Z,97451.18
2018-12-04T09:32:52.583Z,97444.25
2018-12-04T09:35:20.170Z,97455.34
2018-12-04T09:37:47.752Z,97455.60
2018-12-04T09:40:15.299Z,97468.56
2018-12-04T09:42:42.849Z,97461.03
2018-12-04T09:45:10.382Z,97459.16
2018-12-04T09:47:37.924Z,97466.05
2018-12-04T09:50:06.264Z,97461.06
2018-12-04T09:52:33.819Z,97466.70
2018-12-04T09:55:01.436Z,97477.87
2018-12-04T09:57:29.077Z,97469.95
2018-12-04T09:59:56.635Z,97464.36
2018-12-04T10:02:24.203Z,97468.77
2018-12-04T10:04:51.762Z,97473.01
2018-12-04T10:07:19.317Z,97483.84
2018-12-04T10:09:46.886Z,97482.38
2018-12-04T10:12:14.450Z,97490.53
2018-12-04T10:14:41.996Z,97487.99
2018-12-04T10:17:09.580Z,97491.14
2018-12-04T10:19:37.130Z,97494.88
2018-12-04T10:22:04.717Z,97498.34
2018-12-04T10:24:32.249Z,97503.17
2018-12-04T10:26:59.829Z,97512.77
2018-12-04T10:29:27.361Z,97513.55
2018-12-04T10:31:56.150Z,97517.20
2018-12-04T10:34:23.981Z,97512.30
2018-12-04T10:36:51.552Z,97518.38
2018-12-04T10:39:19.084Z,97523.42
2018-12-04T10:41:46.618Z,97522.24
2018-12-04T10:44:14.188Z,97518.02
2018-12-04T10:46:41.756Z,97523.67
2018-12-04T10:49:09.332Z,97528.55
2018-12-04T10:51:36.916Z,97529.97
2018-12-04T10:54:04.444Z,97526.03
2018-12-04T10:56:31.994Z,97528.12
2018-12-04T10:58:59.545Z,97531.20
2018-12-04T11:04:30.951Z,97550.35
2018-12-04T11:06:58.593Z,97559.89
2018-12-04T11:09:26.170Z,97582.75
2018-12-04T11:11:53.719Z,97584.45
2018-12-04T11:14:21.265Z,97594.87
2018-12-04T11:16:48.835Z,97596.84
2018-12-04T11:19:16.435Z,97611.05
2018-12-04T11:21:44.022Z,97616.59
2018-12-04T11:24:11.595Z,97617.20
2018-12-04T11:26:39.150Z,97629.75
2018-12-04T11:29:06.670Z,97617.55
2018-12-04T11:31:34.270Z,97613.66
2018-12-04T11:34:01.828Z,97619.75
2018-12-04T11:36:29.381Z,97617.50
2018-12-04T11:38:56.927Z,97616.25
2018-12-04T11:41:24.526Z,97621.55
2018-12-04T11:43:52.120Z,97623.45
2018-12-04T11:46:19.712Z,97624.61
2018-12-04T11:48:47.240Z,97630.52
2018-12-04T11:51:14.826Z,97641.91
2018-12-04T11:53:42.375Z,97646.44
2018-12-04T11:56:09.918Z,97643.52
2018-12-04T11:58:37.511Z,97653.02
2018-12-04T12:01:05.104Z,97653.73
2018-12-04T12:03:32.651Z,97658.09
2018-12-04T12:06:00.177Z,97648.88
2018-12-04T12:08:27.779Z,97645.92
2018-12-04T12:10:55.325Z,97661.14
2018-12-04T12:13:22.888Z,97672.59
2018-12-04T12:15:50.473Z,97675.95
2018-12-04T12:18:18.044Z,97684.00
2018-12-04T12:20:45.643Z,97692.73
2018-12-04T12:23:13.234Z,97692.16
2018-12-04T12:25:40.824Z,97699.11
2018-12-04T12:28:08.390Z,97706.16
2018-12-04T12:30:35.946Z,97704.72
2018-12-04T12:33:03.504Z,97712.53
2018-12-04T12:35:31.066Z,97708.13
2018-12-04T12:37:58.716Z,97719.41
2018-12-04T12:40:26.469Z,97722.28
2018-12-04T12:42:54.153Z,97689.56
2018-12-04T12:45:21.877Z,97732.91
2018-12-04T12:47:49.483Z,97734.19
2018-12-04T12:50:17.077Z,97392.30
2018-12-04T12:52:44.636Z,97727.30
2018-12-04T12:55:12.190Z,97727.80
2018-12-04T12:57:39.790Z,97731.69
2018-12-04T13:00:08.394Z,97731.05
2018-12-04T13:02:35.944Z,97730.89
2018-12-04T13:05:03.551Z,97735.30
2018-12-04T13:07:31.098Z,97730.77
2018-12-04T13:09:58.674Z,97729.64
2018-12-04T13:12:26.276Z,97731.26
2018-12-04T13:14:53.801Z,97738.86
2018-12-04T13:17:21.434Z,97747.27
2018-12-04T13:19:48.978Z,97750.39
2018-12-04T13:22:16.514Z,97758.92
2018-12-04T13:24:44.058Z,97768.83
2018-12-04T13:27:11.653Z,97772.96
2018-12-04T13:29:39.233Z,97775.87
2018-12-04T13:32:06.786Z,97774.86
2018-12-04T13:34:34.361Z,97780.15
2018-12-04T13:37:01.905Z,97783.02
2018-12-04T13:39:29.449Z,97564.83
2018-12-04T13:41:57.018Z,97789.53
2018-12-04T13:44:24.589Z,97794.42
2018-12-04T13:46:52.189Z,97801.20
2018-12-04T13:49:19.789Z,97810.73
2018-12-04T13:51:47.402Z,97812.74
2018-12-04T13:54:14.960Z,97816.87
2018-12-04T13:56:42.591Z,97826.41
2018-12-04T13:59:10.159Z,97825.02
2018-12-04T14:01:37.795Z,97830.80
2018-12-04T14:04:05.368Z,97842.55
2018-12-04T14:06:32.990Z,97844.56
2018-12-04T14:09:00.553Z,97847.56
2018-12-04T14:11:28.128Z,97855.08
2018-12-04T14:13:55.682Z,97866.48
2018-12-04T14:16:23.249Z,97870.01
2018-12-04T14:18:50.785Z,97761.83
2018-12-04T14:21:18.448Z,97881.17
2018-12-04T14:23:46.047Z,97874.37
2018-12-04T14:26:13.625Z,97892.80
2018-12-04T14:28:41.209Z,97897.81
2018-12-04T14:31:08.792Z,97910.88
2018-12-04T14:33:36.324Z,97915.95
2018-12-04T14:36:03.911Z,97927.13
2018-12-04T14:38:31.506Z,97927.14
2018-12-04T14:40:59.207Z,97875.41
2018-12-04T14:43:26.761Z,97916.14
2018-12-04T14:45:54.455Z,97905.97
2018-12-04T14:48:22.116Z,97905.37
2018-12-04T14:50:49.780Z,97911.21
2018-12-04T14:53:17.337Z,97915.44
2018-12-04T14:55:44.899Z,97921.82
2018-12-04T14:58:12.580Z,97927.73
2018-12-04T15:00:40.134Z,97930.79
2018-12-04T15:03:07.696Z,97937.52
2018-12-04T15:05:35.277Z,97941.95
2018-12-04T15:08:02.846Z,97935.43
2018-12-04T15:10:30.381Z,97946.75
2018-12-04T15:12:57.964Z,97964.99
2018-12-04T15:15:25.587Z,97969.35
2018-12-04T15:17:53.172Z,97973.37
2018-12-04T15:20:20.730Z,97978.80
2018-12-04T15:22:48.271Z,97981.05
2018-12-04T15:25:15.950Z,97993.04
2018-12-04T15:27:43.610Z,97994.07
2018-12-04T15:30:11.322Z,97998.45
2018-12-04T15:32:39.513Z,98000.59
2018-12-04T15:35:07.091Z,98005.95
2018-12-04T15:37:34.709Z,98014.63
2018-12-04T15:40:02.444Z,98018.12
2018-12-04T15:42:30.054Z,98021.51
2018-12-04T15:44:57.681Z,98023.09
2018-12-04T15:47:25.337Z,98030.47
2018-12-04T15:49:52.874Z,98023.23
2018-12-04T15:52:20.459Z,98026.72
2018-12-04T15:54:48.303Z,97994.95
2018-12-04T15:57:16.099Z,98040.30
2018-12-04T15:59:43.896Z,98044.73
2018-12-04T16:02:11.501Z,98039.88
2018-12-04T16:04:39.049Z,98049.12
2018-12-04T16:07:06.808Z,98051.83
2018-12-04T16:09:34.520Z,98053.69
2018-12-04T16:12:02.269Z,98056.94
2018-12-04T16:14:29.861Z,98039.30
2018-12-04T16:16:57.456Z,98038.70
2018-12-04T16:19:25.170Z,98048.23
2018-12-04T16:21:52.791Z,98060.72
2018-12-04T16:24:20.355Z,98072.92
2018-12-04T16:26:47.929Z,98086.02
2018-12-04T16:29:15.628Z,98084.41
2018-12-04T16:31:43.421Z,98087.77
2018-12-04T16:34:10.940Z,98096.37
2018-12-04T16:36:38.539Z,98095.52
2018-12-04T16:39:06.674Z,98092.88
2018-12-04T16:41:34.213Z,98091.62
2018-12-04T16:44:01.799Z,98093.84
2018-12-04T16:46:29.469Z,98090.16
2018-12-04T16:48:57.048Z,98087.16
2018-12-04T16:51:24.741Z,98083.98
2018-12-04T16:53:52.303Z,98085.84
2018-12-04T16:56:19.947Z,98089.80
2018-12-04T16:58:47.523Z,98100.25
2018-12-04T17:01:15.088Z,98095.61
2018-12-04T17:03:42.663Z,98102.31
2018-12-04T17:06:10.280Z,98105.02
2018-12-04T17:08:37.832Z,98111.41
2018-12-04T17:11:05.368Z,98128.53
2018-12-04T17:13:32.960Z,98132.28
2018-12-04T17:16:00.823Z,98134.17
2018-12-04T17:18:28.395Z,98142.56
2018-12-04T17:20:55.998Z,98140.27
2018-12-04T17:23:23.691Z,98147.27
2018-12-04T17:25:51.251Z,98156.22
2018-12-04T17:28:18.806Z,98154.81
2018-12-04T17:30:46.377Z,98164.45
2018-12-04T17:33:14.125Z,98162.70
2018-12-04T17:35:41.741Z,98169.09
2018-12-04T17:38:09.296Z,98173.34
2018-12-04T17:40:36.941Z,98179.29
2018-12-04T17:43:04.830Z,98185.73
2018-12-04T17:45:32.597Z,98186.70
2018-12-04T17:48:00.323Z,98184.44
2018-12-04T17:50:28.073Z,98185.69
2018-12-04T17:52:55.659Z,98187.44
2018-12-04T17:55:23.328Z,98183.19
2018-12-04T17:57:50.874Z,98181.55
2018-12-04T18:00:18.488Z,98178.70
2018-12-04T18:02:46.083Z,98181.20
2018-12-04T18:05:13.634Z,98188.39
2018-12-04T18:07:41.196Z,98190.00
2018-12-04T18:10:08.774Z,98198.30
2018-12-04T18:12:36.349Z,98213.57
2018-12-04T18:15:04.033Z,98214.73
2018-12-04T18:17:31.557Z,98206.28
2018-12-04T18:19:59.048Z,98209.28
2018-12-04T18:22:26.569Z,98202.75
2018-12-04T18:24:54.070Z,98208.98
2018-12-04T18:27:21.577Z,98219.41
2018-12-04T18:29:49.077Z,98223.87
2018-12-04T18:32:16.577Z,98229.16
2018-12-04T18:34:44.072Z,98242.17
2018-12-04T18:37:11.575Z,98249.88
2018-12-04T18:39:39.091Z,98249.52
2018-12-04T18:42:06.587Z,97929.67
2018-12-04T18:44:34.094Z,98245.38
2018-12-04T18:47:01.686Z,98246.48
2018-12-04T18:49:29.226Z,98252.87
2018-12-04T18:51:56.801Z,98070.61
2018-12-04T18:54:24.356Z,98266.25
2018-12-04T18:56:51.923Z,98083.49
2018-12-04T18:59:19.490Z,98265.44
2018-12-04T19:01:47.044Z,98275.83
2018-12-04T19:04:14.662Z,98288.00
2018-12-04T19:06:42.253Z,98293.27
2018-12-04T19:09:09.799Z,98284.72
2018-12-04T19:11:38.845Z,98283.91
2018-12-04T19:14:06.565Z,98281.13
2018-12-04T19:16:34.145Z,98272.40
2018-12-04T19:19:02.372Z,98276.14
2018-12-04T19:21:29.958Z,98275.83
2018-12-04T19:23:57.521Z,98290.65
2018-12-04T19:26:25.089Z,98293.47
2018-12-04T19:28:52.638Z,98294.99
2018-12-04T19:31:20.260Z,98295.39
2018-12-04T19:33:47.828Z,98296.25
2018-12-04T19:36:15.424Z,98295.36
2018-12-04T19:38:42.986Z,98296.10
2018-12-04T19:41:10.556Z,98297.04
2018-12-04T19:43:38.142Z,98296.61
2018-12-04T19:46:06.658Z,98300.66
2018-12-04T19:48:34.397Z,98298.79
2018-12-04T19:51:02.100Z,98311.87
2018-12-04T19:53:29.729Z,98312.87
2018-12-04T19:55:57.256Z,98321.63
2018-12-04T19:58:24.797Z,98322.88
2018-12-04T20:00:52.312Z,98330.48
2018-12-04T20:03:19.818Z,98318.60
2018-12-04T20:05:47.363Z,98322.17
2018-12-04T20:08:14.873Z,98279.99
2018-12-04T20:10:42.394Z,98318.94
2018-12-04T20:13:09.953Z,98318.44
2018-12-04T20:15:37.500Z,98320.62
2018-12-04T20:18:05.400Z,98323.34
2018-12-04T20:20:33.041Z,98327.10
2018-12-04T20:23:00.623Z,98335.67
2018-12-04T20:25:28.286Z,98331.78
2018-12-04T20:27:55.897Z,98339.14
2018-12-04T20:30:23.647Z,98353.02
2018-12-04T20:32:51.202Z,98354.13
2018-12-04T20:35:19.011Z,98360.75
2018-12-04T20:37:46.536Z,98359.02
2018-12-04T20:40:14.143Z,98368.45
2018-12-04T20:42:41.957Z,98367.74
2018-12-04T20:45:12.154Z,98371.14
2018-12-04T20:47:39.767Z,98379.92
2018-12-04T20:50:07.346Z,98369.98
2018-12-04T20:52:34.917Z,98377.34
2018-12-04T20:55:08.763Z,98374.70
2018-12-04T20:57:32.250Z,98376.84
2018-12-04T20:59:59.829Z,98381.09
2018-12-04T21:02:27.606Z,98371.88
2018-12-04T21:04:55.213Z,98378.50
2018-12-04T21:07:22.938Z,98335.71
2018-12-04T21:09:50.441Z,98392.37
2018-12-04T21:12:17.941Z,98391.87
2018-12-04T21:14:45.441Z,98390.84
2018-12-04T21:17:13.038Z,98397.62
2018-12-04T21:19:40.738Z,98401.20
2018-12-04T21:22:08.303Z,98394.48
2018-12-04T21:24:36.786Z,98385.95
2018-12-04T21:27:11.645Z,98384.20
2018-12-04T21:29:41.274Z,98380.14
2018-12-04T21:32:14.283Z,98379.30
2018-12-04T21:34:48.443Z,98380.05
2018-12-04T21:40:25.431Z,98383.27
2018-12-04T21:42:58.508Z,98389.64
2018-12-04T21:45:31.528Z,98400.48
2018-12-04T21:48:01.093Z,98406.91
2018-12-04T21:50:28.662Z,98409.73
2018-12-04T21:52:57.745Z,98415.95
2018-12-04T21:55:25.480Z,98414.02
2018-12-04T21:57:53.040Z,98425.37
2018-12-04T22:00:20.597Z,98429.48
2018-12-04T22:02:48.175Z,98395.86
2018-12-04T22:05:15.743Z,98435.69
2018-12-04T22:07:43.363Z,98448.66
2018-12-04T22:10:10.930Z,98454.56
2018-12-04T22:12:38.530Z,98450.11
2018-12-04T22:15:06.126Z,98452.07
2018-12-04T22:17:33.688Z,98452.27
2018-12-04T22:20:01.246Z,98457.61
2018-12-04T22:22:28.858Z,98454.61
2018-12-04T22:24:56.436Z,98456.53
2018-12-04T22:27:24.013Z,98461.00
2018-12-04T22:29:51.549Z,98463.83
2018-12-04T22:32:19.053Z,98410.34
2018-12-04T22:34:46.548Z,98459.04
2018-12-04T22:37:14.050Z,98469.14
2018-12-04T22:39:41.549Z,98467.73
2018-12-04T22:42:09.062Z,98480.32
2018-12-04T22:44:36.561Z,98483.31
2018-12-04T22:47:04.055Z,98493.79
2018-12-04T22:49:31.586Z,98511.70
2018-12-04T22:51:59.093Z,98494.34
2018-12-04T22:54:26.597Z,98493.81
2018-12-04T22:56:54.109Z,98482.81
2018-12-04T22:59:21.609Z,98474.82
2018-12-04T23:01:49.110Z,98231.53
2018-12-04T23:04:16.605Z,98481.73
2018-12-04T23:06:44.144Z,98488.30
2018-12-04T23:09:11.641Z,98491.48
2018-12-04T23:11:39.139Z,98486.35
2018-12-04T23:14:06.731Z,98484.92
2018-12-04T23:16:34.242Z,98478.36
2018-12-04T23:19:01.737Z,98475.16
2018-12-04T23:21:29.239Z,98474.48
2018-12-04T23:23:56.752Z,98467.55
2018-12-04T23:26:24.263Z,98470.40
2018-12-04T23:28:51.756Z,98472.84
2018-12-04T23:31:19.262Z,98468.95
2018-12-04T23:33:46.766Z,98462.59
2018-12-04T23:36:14.296Z,98463.12
2018-12-04T23:38:41.806Z,98459.72
2018-12-04T23:41:09.302Z,98457.77
2018-12-04T23:43:36.797Z,98451.56
2018-12-04T23:46:04.290Z,98449.09
2018-12-04T23:48:31.805Z,98440.38
2018-12-04T23:50:59.313Z,98437.89
2018-12-04T23:53:26.819Z,98443.41
2018-12-04T23:55:54.320Z,98439.67
2018-12-04T23:58:21.829Z,98440.03
